DTTA Airport Information

Runway Information
Runway 01 Length 10499 ft width 148 ft
Elevation 13 ft Threshold 0 ft Heading 12
Runway 19 Length 10499 ft Width 148 ft
Elevation 21 ft Threshold 0 ft Heading 192
Runway 11 Length 9318 ft width 148 ft
Elevation 19 ft Threshold 0 ft Heading 113
Runway 29 Length 9318 ft Width 148 ft
Elevation 11 ft Threshold 657 ft Heading 293
Airport Frequencies
Type APP Name TUNIS APP Frequency 121.2 MHZ
Type ATIS Name TUNIS ATIS Frequency 118.675 MHZ
Type GND Name TUNIS GND Frequency 121.9 MHZ
Type TWR Name TUNIS TWR Frequency 118.1 MHZ
Airport Navaids
Type NDB Name Tunis Frequency 386 KHZ
Type NDB Name Tunis Frequency 325 KHZ
Type VOR-DME Name Tunis Frequency 116500 KHZ
Airport Weather Information & NOTAM
ADDS - METARS form results

(0124 UTC 22 May 2022)
Data provider http://aviationweather.gov/metar/data/
 
METAR text: DTTA 220100Z 00000KT CAVOK 17/15 Q1016
Conditions at: DTTA (TUNIS/CARTHAGE , TN) observed 0100 UTC 22 May 2022
Temperature: 17.0°C (63°F)
Dewpoint: 15.0°C (59°F) [RH = 88%]
Pressure (altimeter): 30.00 inches Hg (1016.0 mb)
Winds: calm
Visibility: 6 or more miles (10+ km)
Ceiling: ceiling and visibility are OK
Clouds: unknown
Weather: no significant weather observed at this time

METAR text: DTTA 220030Z 00000KT CAVOK 17/15 Q1017
Conditions at: DTTA (TUNIS/CARTHAGE , TN) observed 0030 UTC 22 May 2022
Temperature: 17.0°C (63°F)
Dewpoint: 15.0°C (59°F) [RH = 88%]
Pressure (altimeter): 30.03 inches Hg (1017.0 mb)
Winds: calm
Visibility: 6 or more miles (10+ km)
Ceiling: ceiling and visibility are OK
Clouds: unknown
Weather: no significant weather observed at this time

Forecast for: DTTA (TUNIS/CARTHAGE , TN)
Text: TAF DTTA 212300Z 2200/2224 VRB02KT CAVOK
Forecast period: 0000 to 1100 UTC 22 May 2022
Forecast type: FROM: standard forecast or significant change
Winds: variable direction winds at 2 MPH (2 knots; 1.0 m/s)
Visibility: 6 or more miles (10+ km)
Ceiling: unknown
Clouds: missing
Weather: NSW  (no significant weather)
Text: BECMG 2211/2213 06010KT
Forecast period: 1100 to 1900 UTC 22 May 2022
Forecast type: BECOMING: Conditions expected to become as follows by 1300 UTC 22 May 2022
Winds: from the ENE (60 degrees) at 12 MPH (10 knots; 5.1 m/s)
Visibility: 6 or more miles (10+ km)
Ceiling: unknown
Clouds: missing
Weather: NSW  (no significant weather)
Text: BECMG 2219/2221 VRB03KT
Forecast period: 1900 UTC 22 May 2022 to 0000 UTC 23 May 2022
Forecast type: BECOMING: Conditions expected to become as follows by 2100 UTC 22 May 2022
Winds: variable direction winds at 3 MPH (3 knots; 1.5 m/s)
Visibility: 6 or more miles (10+ km)
Ceiling: unknown
Clouds: missing
Weather: NSW  (no significant weather)